createdAt,value
2022-11-28T00:01:50.247Z,101395.00
2022-11-28T00:04:52.466Z,101394.41
2022-11-28T00:07:55.683Z,101398.28
2022-11-28T00:10:57.551Z,101398.34
2022-11-28T00:13:59.458Z,101401.62
2022-11-28T00:17:01.351Z,101397.38
2022-11-28T00:20:03.527Z,101401.22
2022-11-28T00:23:05.388Z,101401.22
2022-11-28T00:26:17.775Z,101394.34
2022-11-28T00:29:19.635Z,101403.78
2022-11-28T00:32:21.451Z,101398.38
2022-11-28T00:35:23.313Z,101393.69
2022-11-28T00:38:25.179Z,101402.31
2022-11-28T00:41:28.734Z,101406.31
2022-11-28T00:44:30.580Z,101404.09
2022-11-28T00:47:32.478Z,101414.28
2022-11-28T00:50:34.293Z,101405.59
2022-11-28T00:53:36.548Z,101403.84
2022-11-28T00:56:38.906Z,101398.91
2022-11-28T00:59:40.772Z,101398.72
2022-11-28T01:02:42.668Z,101395.97
2022-11-28T01:05:44.634Z,101410.78
2022-11-28T01:08:46.517Z,101398.84
2022-11-28T01:11:49.232Z,101409.16
2022-11-28T01:14:51.104Z,101405.41
2022-11-28T01:17:52.931Z,101393.19
2022-11-28T01:20:54.770Z,101394.59
2022-11-28T01:23:56.629Z,101393.50
2022-11-28T01:26:58.463Z,101395.53
2022-11-28T01:30:00.308Z,101402.41
2022-11-28T01:33:02.113Z,101397.50
2022-11-28T01:36:04.172Z,101391.41
2022-11-28T01:39:06.100Z,101370.69
2022-11-28T01:42:07.961Z,101392.13
2022-11-28T01:45:14.465Z,101391.88
2022-11-28T01:48:18.017Z,101374.22
2022-11-28T01:51:19.823Z,101375.47
2022-11-28T01:54:24.013Z,101371.12
2022-11-28T01:57:25.931Z,101364.84
2022-11-28T02:00:27.807Z,101351.84
2022-11-28T02:03:45.851Z,101349.66
2022-11-28T02:06:47.682Z,101351.94
2022-11-28T02:09:49.492Z,101354.88
2022-11-28T02:13:03.650Z,101348.94
2022-11-28T02:16:14.637Z,101345.81
2022-11-28T02:19:34.893Z,101349.56
2022-11-28T02:22:52.025Z,101349.28
2022-11-28T02:26:09.223Z,101338.28
2022-11-28T02:29:13.734Z,101327.44
2022-11-28T02:32:18.495Z,101324.94
2022-11-28T02:35:52.822Z,101336.59
2022-11-28T02:38:58.686Z,101329.44
2022-11-28T02:42:03.745Z,101330.25
2022-11-28T02:45:35.071Z,101323.22
2022-11-28T02:48:42.597Z,101322.53
2022-11-28T02:51:46.322Z,101319.00
2022-11-28T02:54:48.954Z,101310.47
2022-11-28T02:57:52.128Z,101323.12
2022-11-28T03:00:54.116Z,101320.84
2022-11-28T03:04:14.754Z,101316.84
2022-11-28T03:07:29.312Z,101303.50
2022-11-28T03:10:33.909Z,101305.38
2022-11-28T03:13:40.270Z,101315.81
2022-11-28T03:16:46.414Z,101315.97
2022-11-28T03:19:56.696Z,101309.78
2022-11-28T03:23:01.040Z,101312.19
2022-11-28T03:26:05.900Z,101306.97
2022-11-28T03:29:16.636Z,101296.31
2022-11-28T03:32:19.222Z,101293.12
2022-11-28T03:35:22.692Z,101293.56
2022-11-28T03:38:28.969Z,101287.06
2022-11-28T03:41:41.936Z,101277.13
2022-11-28T03:44:45.737Z,101272.75
2022-11-28T03:47:48.423Z,101268.25
2022-11-28T03:51:10.153Z,101264.03
2022-11-28T03:54:13.880Z,101251.41
2022-11-28T03:57:29.128Z,101250.78
2022-11-28T04:00:31.016Z,101246.19
2022-11-28T04:03:32.853Z,101243.78
2022-11-28T04:06:37.297Z,101223.19
2022-11-28T04:09:47.022Z,101244.25
2022-11-28T04:13:24.193Z,101243.84
2022-11-28T04:16:53.612Z,101244.59
2022-11-28T04:19:58.519Z,101237.53
2022-11-28T04:23:01.575Z,101235.53
2022-11-28T04:26:05.192Z,101232.12
2022-11-28T04:29:08.305Z,101227.72
2022-11-28T04:32:10.368Z,101226.91
2022-11-28T04:35:13.570Z,101231.31
2022-11-28T04:38:15.420Z,101226.28
2022-11-28T04:41:18.718Z,101229.16
2022-11-28T04:44:31.609Z,101231.84
2022-11-28T04:47:33.440Z,101225.41
2022-11-28T04:50:42.585Z,101231.09
2022-11-28T04:54:03.452Z,101227.97
2022-11-28T04:57:17.360Z,101225.41
2022-11-28T05:00:19.918Z,101222.72
2022-11-28T05:03:21.985Z,101235.91
2022-11-28T05:06:24.421Z,101230.03
2022-11-28T05:09:26.260Z,101230.91
2022-11-28T05:12:28.103Z,101221.50
2022-11-28T05:15:29.956Z,101228.62
2022-11-28T05:18:31.797Z,101232.81
2022-11-28T05:21:33.698Z,101234.50
2022-11-28T05:24:35.557Z,101234.34
2022-11-28T05:27:37.502Z,101232.50
2022-11-28T05:30:39.291Z,101228.50
2022-11-28T05:33:41.129Z,101231.88
2022-11-28T05:36:43.007Z,101234.75
2022-11-28T05:39:45.203Z,101236.69
2022-11-28T05:42:47.255Z,101237.19
2022-11-28T05:45:49.382Z,101251.00
2022-11-28T05:48:51.216Z,101258.19
2022-11-28T05:51:53.086Z,101260.22
2022-11-28T05:54:55.017Z,101259.28
2022-11-28T05:57:56.832Z,101264.81
2022-11-28T06:00:58.722Z,101262.88
2022-11-28T06:04:01.174Z,101251.41
2022-11-28T06:07:03.182Z,101259.69
2022-11-28T06:10:05.392Z,101254.84
2022-11-28T06:13:07.404Z,101257.56
2022-11-28T06:16:09.890Z,101256.28
2022-11-28T06:19:12.329Z,101253.91
2022-11-28T06:22:14.440Z,101259.88
2022-11-28T06:25:16.377Z,101256.28
2022-11-28T06:28:18.182Z,101265.81
2022-11-28T06:31:21.202Z,101267.37
2022-11-28T06:34:23.945Z,101263.63
2022-11-28T06:37:25.921Z,101268.19
2022-11-28T06:40:27.788Z,101265.22
2022-11-28T06:43:30.323Z,101267.00
2022-11-28T06:46:32.347Z,101264.91
2022-11-28T06:49:34.240Z,101267.94
2022-11-28T06:52:36.363Z,101272.97
2022-11-28T06:55:38.361Z,101277.56
2022-11-28T06:58:40.646Z,101275.50
2022-11-28T07:01:42.782Z,101282.34
2022-11-28T07:04:44.993Z,101280.50
2022-11-28T07:07:54.193Z,101289.66
2022-11-28T07:10:57.733Z,101265.94
2022-11-28T07:14:00.746Z,101275.22
2022-11-28T07:17:02.832Z,101279.03
2022-11-28T07:20:05.522Z,101273.41
2022-11-28T07:23:07.454Z,101273.44
2022-11-28T07:26:09.966Z,101270.81
2022-11-28T07:29:18.092Z,101271.81
2022-11-28T07:32:19.963Z,101277.31
2022-11-28T07:35:21.782Z,101271.63
2022-11-28T07:38:23.706Z,101266.09
2022-11-28T07:41:26.977Z,101271.53
2022-11-28T07:44:29.134Z,101268.78
2022-11-28T07:47:31.073Z,101269.03
2022-11-28T07:50:32.990Z,101259.69
2022-11-28T07:53:35.285Z,101258.91
2022-11-28T07:57:10.818Z,101245.31
2022-11-28T07:59:59.806Z,101257.47
2022-11-28T08:03:01.717Z,101247.31
2022-11-28T08:06:03.943Z,101244.31
2022-11-28T08:09:07.174Z,101246.69
2022-11-28T08:12:09.129Z,101244.34
2022-11-28T08:15:11.105Z,101244.53
2022-11-28T08:18:13.085Z,101241.31
2022-11-28T08:21:19.997Z,101240.75
2022-11-28T08:24:22.195Z,101238.69
2022-11-28T08:27:24.175Z,101247.13
2022-11-28T08:30:27.065Z,101243.31
2022-11-28T08:33:28.971Z,101246.72
2022-11-28T08:36:30.847Z,101251.59
2022-11-28T08:39:33.554Z,101254.72
2022-11-28T08:42:35.640Z,101257.88
2022-11-28T08:45:37.708Z,101268.53
2022-11-28T08:48:40.021Z,101260.66
2022-11-28T08:51:42.121Z,101256.75
2022-11-28T08:54:44.308Z,101261.44
2022-11-28T08:57:46.353Z,101261.19
2022-11-28T09:00:48.305Z,101257.37
2022-11-28T09:03:50.443Z,101255.59
2022-11-28T09:06:52.737Z,101259.97
2022-11-28T09:09:54.613Z,101256.16
2022-11-28T09:12:56.445Z,101258.09
2022-11-28T09:16:04.676Z,101240.72
2022-11-28T09:19:09.383Z,101248.81
2022-11-28T09:22:11.311Z,101252.00
2022-11-28T09:25:13.866Z,101244.97
2022-11-28T09:28:16.398Z,101242.03
2022-11-28T09:31:18.601Z,101253.66
2022-11-28T09:34:21.397Z,101243.53
2022-11-28T09:37:23.194Z,101228.88
2022-11-28T09:40:41.199Z,101234.81
2022-11-28T09:43:43.539Z,101228.50
2022-11-28T09:46:45.745Z,101231.81
2022-11-28T09:49:55.505Z,101220.16
2022-11-28T09:52:57.517Z,101216.53
2022-11-28T09:56:00.477Z,101218.00
2022-11-28T09:59:05.175Z,101215.38
2022-11-28T10:02:26.707Z,101207.69
2022-11-28T10:05:31.490Z,101197.50
2022-11-28T10:08:51.999Z,101208.59
2022-11-28T10:12:12.761Z,101200.81
2022-11-28T10:15:15.395Z,101195.12
2022-11-28T10:18:29.671Z,101198.25
2022-11-28T10:21:31.487Z,101194.19
2022-11-28T10:24:37.605Z,101189.59
2022-11-28T10:27:39.532Z,101196.06
2022-11-28T10:30:45.247Z,101188.88
2022-11-28T10:33:49.133Z,101190.81
2022-11-28T10:36:53.415Z,101176.09
2022-11-28T10:39:55.755Z,101180.09
2022-11-28T10:42:57.655Z,101169.09
2022-11-28T10:45:59.506Z,101169.88
2022-11-28T10:49:09.533Z,101166.84
2022-11-28T10:52:17.439Z,101164.81
2022-11-28T10:55:28.573Z,101170.72
2022-11-28T10:58:39.695Z,101162.31
2022-11-28T11:01:44.728Z,101165.53
2022-11-28T11:04:50.684Z,101156.34
2022-11-28T11:07:56.470Z,101144.50
2022-11-28T11:10:58.460Z,101139.50
2022-11-28T11:14:01.424Z,101142.03
2022-11-28T11:17:03.999Z,101141.53
2022-11-28T11:20:24.428Z,101151.81
2022-11-28T11:23:26.287Z,101148.59
2022-11-28T11:26:30.225Z,101143.16
2022-11-28T11:29:35.573Z,101139.56
2022-11-28T11:32:37.454Z,101138.66
2022-11-28T11:35:47.509Z,101144.56
2022-11-28T11:38:49.481Z,101146.06
2022-11-28T11:41:52.433Z,101128.41
2022-11-28T11:44:54.490Z,101133.41
2022-11-28T11:47:56.390Z,101129.84
2022-11-28T11:50:58.254Z,101137.44
2022-11-28T11:54:03.270Z,101138.31
2022-11-28T11:57:31.485Z,101137.25
2022-11-28T12:00:47.523Z,101129.59
2022-11-28T12:03:57.101Z,101128.34
2022-11-28T12:06:59.093Z,101113.94
2022-11-28T12:10:04.628Z,101122.47
2022-11-28T12:13:08.824Z,101125.19
2022-11-28T12:16:16.899Z,101118.50
2022-11-28T12:19:45.476Z,101105.38
2022-11-28T12:22:47.308Z,101107.66
2022-11-28T12:25:50.878Z,101107.28
2022-11-28T12:28:55.842Z,101114.09
2022-11-28T12:32:00.796Z,101098.22
2022-11-28T12:35:02.620Z,101105.22
2022-11-28T12:38:22.736Z,101098.59
2022-11-28T12:41:32.706Z,101090.38
2022-11-28T12:44:58.077Z,101098.16
2022-11-28T12:48:09.171Z,101102.84
2022-11-28T12:51:11.008Z,101094.25
2022-11-28T12:54:22.208Z,101097.84
2022-11-28T12:57:35.041Z,101093.16
2022-11-28T13:00:41.343Z,101073.56
2022-11-28T13:04:02.741Z,101083.59
2022-11-28T13:07:07.852Z,101086.28
2022-11-28T13:10:15.553Z,101085.00
2022-11-28T13:13:23.412Z,101078.66
2022-11-28T13:16:27.296Z,101084.09
2022-11-28T13:19:29.601Z,101073.84
2022-11-28T13:22:40.030Z,101070.72
2022-11-28T13:25:50.685Z,101075.97
2022-11-28T13:28:54.679Z,101085.03
2022-11-28T13:32:02.237Z,101078.38
2022-11-28T13:35:04.576Z,101073.41
2022-11-28T13:42:21.267Z,101059.38
2022-11-28T13:45:26.565Z,101065.78
2022-11-28T13:49:13.311Z,101067.66
2022-11-28T13:52:26.009Z,101074.53
2022-11-28T13:55:36.892Z,101072.50
2022-11-28T13:58:53.078Z,101081.41
2022-11-28T14:01:58.335Z,101078.34
2022-11-28T14:05:00.371Z,101088.94
2022-11-28T14:08:02.671Z,101073.69
2022-11-28T14:11:27.585Z,101071.16
2022-11-28T14:14:48.733Z,101067.00
2022-11-28T14:17:59.961Z,101059.16
2022-11-28T14:21:20.428Z,101065.38
2022-11-28T14:24:36.417Z,101062.75
2022-11-28T14:27:39.025Z,101063.22
2022-11-28T14:30:41.680Z,101059.72
2022-11-28T14:33:43.810Z,101059.56
2022-11-28T14:36:45.660Z,101056.88
2022-11-28T14:39:51.374Z,101056.09
2022-11-28T14:43:12.144Z,101054.53
2022-11-28T14:46:27.513Z,101041.44
2022-11-28T14:49:29.450Z,101057.03
2022-11-28T14:52:40.027Z,101052.28
2022-11-28T14:55:42.621Z,101048.38
2022-11-28T14:58:47.496Z,101061.16
2022-11-28T15:01:56.867Z,101051.53
2022-11-28T15:05:18.025Z,101050.28
2022-11-28T15:08:29.195Z,101052.94
2022-11-28T15:11:43.335Z,101050.13
2022-11-28T15:14:45.729Z,101049.84
2022-11-28T15:17:48.982Z,101037.19
2022-11-28T15:20:53.917Z,101052.53
2022-11-28T15:23:56.694Z,101054.41
2022-11-28T15:27:07.877Z,101064.94
2022-11-28T15:30:16.609Z,101069.78
2022-11-28T15:33:18.909Z,101063.00
2022-11-28T15:36:27.642Z,101070.19
2022-11-28T15:39:30.978Z,101069.22
2022-11-28T15:42:36.041Z,101060.87
2022-11-28T15:45:38.093Z,101067.31
2022-11-28T15:48:47.882Z,101070.78
2022-11-28T15:51:53.914Z,101068.53
2022-11-28T15:54:56.018Z,101073.47
2022-11-28T15:58:11.504Z,101077.47
2022-11-28T16:01:20.679Z,101077.34
2022-11-28T16:04:22.701Z,101077.09
2022-11-28T16:07:24.552Z,101079.16
2022-11-28T16:10:26.481Z,101084.87
2022-11-28T16:13:28.261Z,101089.72
2022-11-28T16:16:30.943Z,101081.37
2022-11-28T16:19:33.776Z,101090.25
2022-11-28T16:22:36.215Z,101086.62
2022-11-28T16:25:38.972Z,101097.59
2022-11-28T16:28:40.987Z,101089.06
2022-11-28T16:31:43.474Z,101087.44
2022-11-28T16:34:55.284Z,101082.09
2022-11-28T16:38:17.520Z,101084.84
2022-11-28T16:41:23.760Z,101084.16
2022-11-28T16:44:26.245Z,101078.88
2022-11-28T16:47:29.463Z,101088.63
2022-11-28T16:50:31.312Z,101089.44
2022-11-28T16:53:57.452Z,101084.41
2022-11-28T16:57:14.670Z,101079.19
2022-11-28T17:00:16.701Z,101089.94
2022-11-28T17:03:39.800Z,101084.41
2022-11-28T17:06:42.558Z,101084.66
2022-11-28T17:09:45.614Z,101099.09
2022-11-28T17:12:47.813Z,101090.84
2022-11-28T17:15:49.648Z,101095.53
2022-11-28T17:18:51.534Z,101098.53
2022-11-28T17:21:54.168Z,101094.59
2022-11-28T17:24:58.592Z,101091.91
2022-11-28T17:28:00.403Z,101096.81
2022-11-28T17:31:02.366Z,101101.19
2022-11-28T17:34:04.216Z,101097.69
2022-11-28T17:37:06.071Z,101098.41
2022-11-28T17:40:26.719Z,101101.28
2022-11-28T17:43:28.580Z,101095.22
2022-11-28T17:46:30.447Z,101104.41
2022-11-28T17:49:32.290Z,101108.69
2022-11-28T17:52:34.113Z,101108.37
2022-11-28T17:55:36.662Z,101099.38
2022-11-28T17:58:38.567Z,101102.91
2022-11-28T18:01:40.591Z,101090.66
2022-11-28T18:04:42.441Z,101096.28
2022-11-28T18:07:44.373Z,101092.19
2022-11-28T18:10:46.402Z,101100.97
2022-11-28T18:13:48.332Z,101097.31
2022-11-28T18:16:50.168Z,101104.19
2022-11-28T18:19:57.153Z,101111.72
2022-11-28T18:22:59.745Z,101109.16
2022-11-28T18:26:05.183Z,101105.94
2022-11-28T18:29:10.116Z,101106.19
2022-11-28T18:32:12.032Z,101097.22
2022-11-28T18:35:13.833Z,101108.69
2022-11-28T18:38:15.692Z,101120.06
2022-11-28T18:41:17.650Z,101110.31
2022-11-28T18:44:19.520Z,101120.25
2022-11-28T18:47:21.365Z,101122.84
2022-11-28T18:50:23.224Z,101120.16
2022-11-28T18:53:25.056Z,101118.37
2022-11-28T18:56:27.153Z,101112.19
2022-11-28T18:59:29.057Z,101121.00
2022-11-28T19:02:31.064Z,101105.22
2022-11-28T19:05:38.933Z,101123.66
2022-11-28T19:08:41.543Z,101112.13
2022-11-28T19:11:43.756Z,101114.84
2022-11-28T19:14:45.996Z,101113.31
2022-11-28T19:17:47.882Z,101115.88
2022-11-28T19:20:49.716Z,101101.91
2022-11-28T19:23:51.684Z,101106.22
2022-11-28T19:26:53.566Z,101108.97
2022-11-28T19:29:55.556Z,101106.25
2022-11-28T19:32:58.081Z,101110.69
2022-11-28T19:36:06.374Z,101098.50
2022-11-28T19:39:09.002Z,101113.28
2022-11-28T19:42:11.088Z,101100.16
2022-11-28T19:45:12.935Z,101105.31
2022-11-28T19:48:14.864Z,101104.94
2022-11-28T19:51:16.984Z,101106.62
2022-11-28T19:54:22.024Z,101110.09
2022-11-28T19:57:26.269Z,101103.47
2022-11-28T20:00:28.110Z,101120.09
2022-11-28T20:03:29.911Z,101103.62
2022-11-28T20:06:32.299Z,101106.84
2022-11-28T20:09:34.152Z,101110.34
2022-11-28T20:12:36.006Z,101110.53
2022-11-28T20:15:37.880Z,101108.06
2022-11-28T20:18:40.490Z,101107.87
2022-11-28T20:21:42.407Z,101108.72
2022-11-28T20:24:44.199Z,101107.94
2022-11-28T20:27:46.199Z,101115.91
2022-11-28T20:30:48.068Z,101108.78
2022-11-28T20:33:50.201Z,101111.34
2022-11-28T20:36:52.250Z,101114.13
2022-11-28T20:39:54.281Z,101105.16
2022-11-28T20:42:56.139Z,101100.91
2022-11-28T20:46:04.573Z,101108.84
2022-11-28T20:49:06.564Z,101116.47
2022-11-28T20:52:08.394Z,101111.25
2022-11-28T20:55:10.398Z,101107.78
2022-11-28T20:58:12.185Z,101115.63
2022-11-28T21:01:21.152Z,101117.38
2022-11-28T21:04:23.074Z,101119.38
2022-11-28T21:07:26.714Z,101114.06
2022-11-28T21:10:28.660Z,101114.00
2022-11-28T21:13:31.392Z,101118.34
2022-11-28T21:16:33.652Z,101120.28
2022-11-28T21:19:35.559Z,101129.75
2022-11-28T21:22:37.400Z,101128.94
2022-11-28T21:25:39.449Z,101120.09
2022-11-28T21:28:41.789Z,101126.31
2022-11-28T21:31:43.997Z,101126.28
2022-11-28T21:34:45.956Z,101127.97
2022-11-28T21:37:47.777Z,101125.41
2022-11-28T21:40:53.128Z,101122.00
2022-11-28T21:43:55.247Z,101127.16
2022-11-28T21:46:57.158Z,101132.41
2022-11-28T21:49:58.968Z,101128.06
2022-11-28T21:53:00.783Z,101124.47
2022-11-28T21:56:02.988Z,101122.00
2022-11-28T21:59:04.897Z,101129.75
2022-11-28T22:05:29.793Z,101126.06
2022-11-28T22:08:31.766Z,101126.16
2022-11-28T22:11:33.579Z,101123.00
2022-11-28T22:14:36.917Z,101126.09
2022-11-28T22:17:39.100Z,101133.16
2022-11-28T22:20:43.588Z,101125.34
2022-11-28T22:23:46.826Z,101125.09
2022-11-28T22:26:48.661Z,101118.75
2022-11-28T22:29:50.631Z,101124.56
2022-11-28T22:32:52.473Z,101133.28
2022-11-28T22:35:54.280Z,101127.19
2022-11-28T22:38:56.780Z,101128.94
2022-11-28T22:41:58.612Z,101124.47
2022-11-28T22:45:00.459Z,101114.69
2022-11-28T22:48:02.276Z,101121.13
2022-11-28T22:51:08.239Z,101126.31
2022-11-28T22:54:11.617Z,101115.66
2022-11-28T22:57:13.462Z,101115.63
2022-11-28T23:00:15.563Z,101125.47
2022-11-28T23:03:17.419Z,101115.78
2022-11-28T23:06:20.989Z,101121.66
2022-11-28T23:09:22.929Z,101116.62
2022-11-28T23:12:25.030Z,101119.16
2022-11-28T23:15:26.978Z,101109.69
2022-11-28T23:18:28.784Z,101127.44
2022-11-28T23:21:32.213Z,101119.56
2022-11-28T23:24:34.081Z,101123.03
2022-11-28T23:27:35.996Z,101125.75
2022-11-28T23:30:37.860Z,101121.44
2022-11-28T23:33:40.039Z,101128.69
2022-11-28T23:36:43.122Z,101131.53
2022-11-28T23:39:45.068Z,101126.28
2022-11-28T23:42:46.890Z,101127.88
2022-11-28T23:45:48.772Z,101127.91
2022-11-28T23:48:50.736Z,101123.56
2022-11-28T23:51:52.568Z,101117.53
2022-11-28T23:54:54.384Z,101112.16
2022-11-28T23:57:56.215Z,101110.31
